createdAt,value
2023-04-02T00:00:36.944Z,4.53
2023-04-02T00:03:08.564Z,4.43
2023-04-02T00:05:55.857Z,5.20
2023-04-02T00:08:38.982Z,4.90
2023-04-02T00:11:06.832Z,4.78
2023-04-02T00:13:35.574Z,5.30
2023-04-02T00:16:05.629Z,4.57
2023-04-02T00:18:34.056Z,5.18
2023-04-02T00:21:07.751Z,5.57
2023-04-02T00:23:38.641Z,4.85
2023-04-02T00:26:21.660Z,4.88
2023-04-02T00:28:48.271Z,4.60
2023-04-02T00:31:17.262Z,4.53
2023-04-02T00:33:44.106Z,4.78
2023-04-02T00:36:10.784Z,4.68
2023-04-02T00:38:38.429Z,5.20
2023-04-02T00:41:07.667Z,4.50
2023-04-02T00:43:39.680Z,4.80
2023-04-02T00:46:15.094Z,4.03
2023-04-02T00:48:57.621Z,4.82
2023-04-02T00:51:29.774Z,4.45
2023-04-02T00:54:00.823Z,4.70
2023-04-02T00:56:40.414Z,5.50
2023-04-02T00:59:26.490Z,5.03
2023-04-02T01:02:22.500Z,4.22
2023-04-02T01:05:11.317Z,4.35
2023-04-02T01:07:49.459Z,4.20
2023-04-02T01:10:34.648Z,4.80
2023-04-02T01:13:16.485Z,4.30
2023-04-02T01:16:04.746Z,4.30
2023-04-02T01:18:42.361Z,5.03
2023-04-02T01:21:37.179Z,5.43
2023-04-02T01:24:05.852Z,4.45
2023-04-02T01:26:57.632Z,4.47
2023-04-02T01:29:35.950Z,4.00
2023-04-02T01:32:10.318Z,4.47
2023-04-02T01:34:38.065Z,5.13
2023-04-02T01:37:27.878Z,4.65
2023-04-02T01:40:19.993Z,4.30
2023-04-02T01:42:57.801Z,5.13
2023-04-02T01:45:25.002Z,3.42
2023-04-02T01:47:51.776Z,4.00
2023-04-02T01:50:38.476Z,3.95
2023-04-02T01:53:08.554Z,4.55
2023-04-02T01:55:40.322Z,3.90
2023-04-02T01:58:08.879Z,4.60
2023-04-02T02:00:41.490Z,3.70
2023-04-02T02:03:10.136Z,3.97
2023-04-02T02:05:37.444Z,4.00
2023-04-02T02:08:05.928Z,4.25
2023-04-02T02:10:39.149Z,4.20
2023-04-02T02:13:05.684Z,4.60
2023-04-02T02:15:34.362Z,3.53
2023-04-02T02:18:05.918Z,4.85
2023-04-02T02:20:34.408Z,4.20
2023-04-02T02:23:03.872Z,4.38
2023-04-02T02:25:36.459Z,4.27
2023-04-02T02:28:08.228Z,3.53
2023-04-02T02:30:41.898Z,3.78
2023-04-02T02:33:31.082Z,4.03
2023-04-02T02:36:10.463Z,4.10
2023-04-02T02:38:49.493Z,4.20
2023-04-02T02:41:45.302Z,4.72
2023-04-02T02:44:20.768Z,4.80
2023-04-02T02:46:53.715Z,4.15
2023-04-02T02:49:26.612Z,4.43
2023-04-02T02:51:57.934Z,4.63
2023-04-02T02:54:26.352Z,3.55
2023-04-02T02:57:01.411Z,4.47
2023-04-02T02:59:30.554Z,3.67
2023-04-02T03:01:57.220Z,3.35
2023-04-02T03:04:25.028Z,3.37
2023-04-02T03:06:58.048Z,2.78
2023-04-02T03:09:45.816Z,4.30
2023-04-02T03:12:31.211Z,3.40
2023-04-02T03:15:06.511Z,4.25
2023-04-02T03:17:39.724Z,4.33
2023-04-02T03:20:23.088Z,4.38
2023-04-02T03:23:02.641Z,4.88
2023-04-02T03:25:38.693Z,5.30
2023-04-02T03:28:07.894Z,4.28
2023-04-02T03:30:38.688Z,4.47
2023-04-02T03:33:13.853Z,3.97
2023-04-02T03:35:52.601Z,3.25
2023-04-02T03:38:25.367Z,3.15
2023-04-02T03:41:10.108Z,2.60
2023-04-02T03:43:58.172Z,2.90
2023-04-02T03:46:57.678Z,2.45
2023-04-02T03:49:55.026Z,2.40
2023-04-02T03:52:29.732Z,1.95
2023-04-02T03:54:59.111Z,2.53
2023-04-02T03:57:43.981Z,2.60
2023-04-02T04:00:35.641Z,2.00
2023-04-02T04:03:27.004Z,2.13
2023-04-02T04:06:00.259Z,1.98
2023-04-02T04:08:50.591Z,2.10
2023-04-02T04:11:22.778Z,2.27
2023-04-02T04:14:10.090Z,1.63
2023-04-02T04:16:55.243Z,1.90
2023-04-02T04:19:46.188Z,2.10
2023-04-02T04:22:30.492Z,1.75
2023-04-02T04:24:59.066Z,2.57
2023-04-02T04:28:07.842Z,2.33
2023-04-02T04:31:09.420Z,1.85
2023-04-02T04:33:44.269Z,2.42
2023-04-02T04:36:28.729Z,2.00
2023-04-02T04:38:59.511Z,2.10
2023-04-02T04:41:34.216Z,1.80
2023-04-02T04:44:39.458Z,1.70
2023-04-02T04:47:18.204Z,1.92
2023-04-02T04:50:33.060Z,2.13
2023-04-02T04:53:13.911Z,2.13
2023-04-02T04:55:44.170Z,2.05
2023-04-02T04:58:37.513Z,1.80
2023-04-02T05:01:04.219Z,1.95
2023-04-02T05:03:37.927Z,1.65
2023-04-02T05:06:13.690Z,1.53
2023-04-02T05:08:45.459Z,2.00
2023-04-02T05:11:21.142Z,1.95
2023-04-02T05:13:58.032Z,2.00
2023-04-02T05:16:27.620Z,2.03
2023-04-02T05:19:01.140Z,2.10
2023-04-02T05:21:27.679Z,1.95
2023-04-02T05:23:54.172Z,1.80
2023-04-02T05:26:37.433Z,2.17
2023-04-02T05:29:13.578Z,2.60
2023-04-02T05:31:56.057Z,1.90
2023-04-02T05:34:28.495Z,1.85
2023-04-02T05:36:55.734Z,2.58
2023-04-02T05:39:24.648Z,2.10
2023-04-02T05:42:14.933Z,1.95
2023-04-02T05:45:04.859Z,2.60
2023-04-02T05:47:33.460Z,2.63
2023-04-02T05:50:10.060Z,2.10
2023-04-02T05:52:42.788Z,1.83
2023-04-02T05:55:12.403Z,1.95
2023-04-02T05:57:53.063Z,1.83
2023-04-02T06:00:37.491Z,1.60
2023-04-02T06:03:14.016Z,1.80
2023-04-02T06:05:46.069Z,2.15
2023-04-02T06:08:22.736Z,1.85
2023-04-02T06:10:57.350Z,1.60
2023-04-02T06:13:24.232Z,1.73
2023-04-02T06:15:51.098Z,1.20
2023-04-02T06:18:24.393Z,1.38
2023-04-02T06:20:51.658Z,1.48
2023-04-02T06:23:37.235Z,1.23
2023-04-02T06:26:25.110Z,1.30
2023-04-02T06:29:02.400Z,1.70
2023-04-02T06:31:38.223Z,1.85
2023-04-02T06:34:07.747Z,1.70
2023-04-02T06:36:34.838Z,1.97
2023-04-02T06:39:07.923Z,1.63
2023-04-02T06:41:34.592Z,1.30
2023-04-02T06:44:22.881Z,1.48
2023-04-02T06:47:00.681Z,2.10
2023-04-02T06:49:47.036Z,1.43
2023-04-02T06:52:26.214Z,1.55
2023-04-02T06:54:53.246Z,1.90
2023-04-02T06:57:23.269Z,1.52
2023-04-02T06:59:50.111Z,1.60
2023-04-02T07:02:31.178Z,1.63
2023-04-02T07:05:03.479Z,2.00
2023-04-02T07:07:30.170Z,1.90
2023-04-02T07:09:57.611Z,1.92
2023-04-02T07:12:25.206Z,1.90
2023-04-02T07:14:52.441Z,1.60
2023-04-02T07:17:20.360Z,1.50
2023-04-02T07:19:49.819Z,1.60
2023-04-02T07:22:18.775Z,1.45
2023-04-02T07:24:46.317Z,1.55
2023-04-02T07:27:14.640Z,1.53
2023-04-02T07:29:44.553Z,1.67
2023-04-02T07:32:13.032Z,1.70
2023-04-02T07:34:41.071Z,2.00
2023-04-02T07:37:08.147Z,1.75
2023-04-02T07:39:37.795Z,1.83
2023-04-02T07:42:05.576Z,2.05
2023-04-02T07:44:32.263Z,2.05
2023-04-02T07:46:59.066Z,1.52
2023-04-02T07:49:29.032Z,6.22
2023-04-02T07:51:55.778Z,2.30
2023-04-02T07:54:22.534Z,2.03
2023-04-02T07:56:49.280Z,1.92
2023-04-02T07:59:18.912Z,2.58
2023-04-02T08:01:45.840Z,1.73
2023-04-02T08:04:21.361Z,1.77
2023-04-02T08:06:50.327Z,1.92
2023-04-02T08:09:17.244Z,2.05
2023-04-02T08:11:44.180Z,2.35
2023-04-02T08:14:11.233Z,2.30
2023-04-02T08:16:49.965Z,3.00
2023-04-02T08:19:17.233Z,2.25
2023-04-02T08:21:44.559Z,1.67
2023-04-02T08:24:11.182Z,2.75
2023-04-02T08:26:40.501Z,1.70
2023-04-02T08:29:07.162Z,1.70
2023-04-02T08:31:33.734Z,1.95
2023-04-02T08:34:01.661Z,1.77
2023-04-02T08:36:33.438Z,2.42
2023-04-02T08:39:01.206Z,1.75
2023-04-02T08:41:36.650Z,1.70
2023-04-02T08:44:19.409Z,2.08
2023-04-02T08:46:52.471Z,2.20
2023-04-02T08:49:31.264Z,1.92
2023-04-02T08:51:57.900Z,2.03
2023-04-02T08:54:29.388Z,1.80
2023-04-02T08:57:07.543Z,2.42
2023-04-02T08:59:37.796Z,2.13
2023-04-02T09:02:13.387Z,2.08
2023-04-02T09:04:41.691Z,1.77
2023-04-02T09:07:14.476Z,2.70
2023-04-02T09:09:41.586Z,2.30
2023-04-02T09:12:20.002Z,1.65
2023-04-02T09:14:52.776Z,1.70
2023-04-02T09:17:24.375Z,2.03
2023-04-02T09:19:56.219Z,1.80
2023-04-02T09:22:31.763Z,2.25
2023-04-02T09:25:01.543Z,2.40
2023-04-02T09:27:31.900Z,1.70
2023-04-02T09:30:20.565Z,1.70
2023-04-02T09:32:55.470Z,2.27
2023-04-02T09:35:26.996Z,1.55
2023-04-02T09:38:32.743Z,1.90
2023-04-02T09:41:01.499Z,1.83
2023-04-02T09:43:40.052Z,2.55
2023-04-02T09:46:23.788Z,2.17
2023-04-02T09:48:58.583Z,1.92
2023-04-02T09:51:28.532Z,2.67
2023-04-02T09:54:04.451Z,2.30
2023-04-02T09:56:36.732Z,2.05
2023-04-02T09:59:12.497Z,2.37
2023-04-02T10:02:23.388Z,1.48
2023-04-02T10:04:51.096Z,1.80
2023-04-02T10:07:36.168Z,1.60
2023-04-02T10:10:21.386Z,1.80
2023-04-02T10:13:02.418Z,1.93
2023-04-02T10:15:49.300Z,3.05
2023-04-02T10:18:28.597Z,3.50
2023-04-02T10:20:57.358Z,2.95
2023-04-02T10:23:28.242Z,1.98
2023-04-02T10:26:04.023Z,2.33
2023-04-02T10:28:42.744Z,2.13
2023-04-02T10:31:22.852Z,2.47
2023-04-02T10:33:53.643Z,2.08
2023-04-02T10:36:35.560Z,2.08
2023-04-02T10:39:13.027Z,1.87
2023-04-02T10:42:09.493Z,2.60
2023-04-02T10:44:50.836Z,2.10
2023-04-02T10:47:42.444Z,9.27
2023-04-02T10:50:26.981Z,2.60
2023-04-02T10:53:09.023Z,2.10
2023-04-02T10:55:43.284Z,1.65
2023-04-02T10:58:31.285Z,1.88
2023-04-02T11:01:21.077Z,2.10
2023-04-02T11:03:57.839Z,2.50
2023-04-02T11:06:31.225Z,2.23
2023-04-02T11:09:04.936Z,2.33
2023-04-02T11:11:38.674Z,1.83
2023-04-02T11:14:21.044Z,2.10
2023-04-02T11:16:52.300Z,2.17
2023-04-02T11:19:33.211Z,2.43
2023-04-02T11:22:03.189Z,1.60
2023-04-02T11:24:32.958Z,2.15
2023-04-02T11:27:12.346Z,2.08
2023-04-02T11:29:47.973Z,2.40
2023-04-02T11:32:29.854Z,1.47
2023-04-02T11:35:06.673Z,2.30
2023-04-02T11:37:46.112Z,1.50
2023-04-02T11:40:13.915Z,1.50
2023-04-02T11:42:45.289Z,1.58
2023-04-02T11:45:24.105Z,2.23
2023-04-02T11:47:59.796Z,1.77
2023-04-02T11:50:34.033Z,1.63
2023-04-02T11:53:05.570Z,1.90
2023-04-02T11:55:34.525Z,1.73
2023-04-02T11:58:13.396Z,1.60
2023-04-02T12:00:45.826Z,1.60
2023-04-02T12:03:49.248Z,1.90
2023-04-02T12:06:31.078Z,1.85
2023-04-02T12:09:16.656Z,2.20
2023-04-02T12:11:43.450Z,2.10
2023-04-02T12:14:47.432Z,1.77
2023-04-02T12:17:38.213Z,1.98
2023-04-02T12:20:09.168Z,2.00
2023-04-02T12:22:41.000Z,2.13
2023-04-02T12:25:31.498Z,3.30
2023-04-02T12:28:20.029Z,2.35
2023-04-02T12:30:48.480Z,3.83
2023-04-02T12:33:27.886Z,3.75
2023-04-02T12:36:00.242Z,2.55
2023-04-02T12:38:31.072Z,2.33
2023-04-02T12:41:03.774Z,2.28
2023-04-02T12:43:39.945Z,2.30
2023-04-02T12:46:08.640Z,3.05
2023-04-02T12:48:36.579Z,2.05
2023-04-02T12:51:04.289Z,2.17
2023-04-02T12:53:41.559Z,2.17
2023-04-02T12:56:18.448Z,2.00
2023-04-02T12:58:53.558Z,2.38
2023-04-02T13:01:27.585Z,1.65
2023-04-02T13:04:14.651Z,1.80
2023-04-02T13:06:47.436Z,1.85
2023-04-02T13:09:36.294Z,2.20
2023-04-02T13:12:03.366Z,2.28
2023-04-02T13:14:31.006Z,1.92
2023-04-02T13:16:57.611Z,2.10
2023-04-02T13:19:28.235Z,1.85
2023-04-02T13:21:57.045Z,1.35
2023-04-02T13:24:26.642Z,1.60
2023-04-02T13:26:59.130Z,1.70
2023-04-02T13:29:36.788Z,2.17
2023-04-02T13:32:12.133Z,1.55
2023-04-02T13:34:38.742Z,1.77
2023-04-02T13:37:05.439Z,1.50
2023-04-02T13:39:32.010Z,1.73
2023-04-02T13:42:02.798Z,1.83
2023-04-02T13:44:31.621Z,1.88
2023-04-02T13:46:59.336Z,1.67
2023-04-02T13:49:27.528Z,1.80
2023-04-02T13:52:00.867Z,1.40
2023-04-02T13:54:34.943Z,2.20
2023-04-02T13:57:02.156Z,2.22
2023-04-02T13:59:28.876Z,1.95
2023-04-02T14:01:59.653Z,1.65
2023-04-02T14:04:30.076Z,1.95
2023-04-02T14:07:16.881Z,2.00
2023-04-02T14:10:07.953Z,2.45
2023-04-02T14:12:57.466Z,2.25
2023-04-02T14:15:33.194Z,1.65
2023-04-02T14:18:56.961Z,1.98
2023-04-02T14:21:47.982Z,1.83
2023-04-02T14:24:20.779Z,1.80
2023-04-02T14:27:06.668Z,1.60
2023-04-02T14:29:41.996Z,1.23
2023-04-02T14:32:17.915Z,2.67
2023-04-02T14:34:50.588Z,2.30
2023-04-02T14:37:20.099Z,1.98
2023-04-02T14:39:52.841Z,2.45
2023-04-02T14:42:25.621Z,1.92
2023-04-02T14:45:04.365Z,2.13
2023-04-02T14:47:38.129Z,2.27
2023-04-02T14:50:20.394Z,2.45
2023-04-02T14:52:54.073Z,2.47
2023-04-02T14:55:51.833Z,2.50
2023-04-02T14:58:28.065Z,2.60
2023-04-02T15:01:26.402Z,2.10
2023-04-02T15:04:05.490Z,2.72
2023-04-02T15:06:38.769Z,2.50
2023-04-02T15:09:25.836Z,2.00
2023-04-02T15:12:02.332Z,2.30
2023-04-02T15:14:37.096Z,3.37
2023-04-02T15:17:04.119Z,2.10
2023-04-02T15:19:30.870Z,1.88
2023-04-02T15:22:09.558Z,2.22
2023-04-02T15:24:40.691Z,1.80
2023-04-02T15:27:24.487Z,1.77
2023-04-02T15:30:08.932Z,2.08
2023-04-02T15:32:39.086Z,1.48
2023-04-02T15:35:48.119Z,1.92
2023-04-02T15:38:24.803Z,1.60
2023-04-02T15:41:07.782Z,2.20
2023-04-02T15:43:37.322Z,2.03
2023-04-02T15:46:43.825Z,2.40
2023-04-02T15:49:38.683Z,2.42
2023-04-02T15:52:09.672Z,2.47
2023-04-02T15:55:10.932Z,1.60
2023-04-02T15:58:10.927Z,2.40
2023-04-02T16:00:58.739Z,1.40
2023-04-02T16:03:31.317Z,1.38
2023-04-02T16:06:23.570Z,2.25
2023-04-02T16:09:19.741Z,1.70
2023-04-02T16:11:46.522Z,1.70
2023-04-02T16:14:22.852Z,1.23
2023-04-02T16:16:51.174Z,1.60
2023-04-02T16:19:42.180Z,1.20
2023-04-02T16:22:14.825Z,1.60
2023-04-02T16:24:41.526Z,1.17
2023-04-02T16:27:20.314Z,1.20
2023-04-02T16:29:57.767Z,1.30
2023-04-02T16:32:38.983Z,1.58
2023-04-02T16:35:43.001Z,1.77
2023-04-02T16:38:28.224Z,1.48
2023-04-02T16:41:27.720Z,1.17
2023-04-02T16:44:14.937Z,1.10
2023-04-02T16:47:04.230Z,1.95
2023-04-02T16:49:31.230Z,1.20
2023-04-02T16:52:11.852Z,1.30
2023-04-02T16:55:26.022Z,1.33
2023-04-02T16:58:18.084Z,2.15
2023-04-02T17:00:53.002Z,1.65
2023-04-02T17:03:44.815Z,2.13
2023-04-02T17:06:29.763Z,2.13
2023-04-02T17:09:16.029Z,1.45
2023-04-02T17:11:48.593Z,1.58
2023-04-02T17:14:29.951Z,1.40
2023-04-02T17:17:02.857Z,1.47
2023-04-02T17:19:31.174Z,1.35
2023-04-02T17:22:04.450Z,1.50
2023-04-02T17:24:39.099Z,1.15
2023-04-02T17:27:27.661Z,1.25
2023-04-02T17:30:01.366Z,1.57
2023-04-02T17:32:31.704Z,1.70
2023-04-02T17:35:17.793Z,1.65
2023-04-02T17:37:48.223Z,1.52
2023-04-02T17:40:26.477Z,1.35
2023-04-02T17:43:10.634Z,1.30
2023-04-02T17:45:48.221Z,1.40
2023-04-02T17:48:30.182Z,1.38
2023-04-02T17:51:25.799Z,1.58
2023-04-02T17:54:25.897Z,1.70
2023-04-02T17:57:07.799Z,1.47
2023-04-02T17:59:44.305Z,1.50
2023-04-02T18:02:23.020Z,1.65
2023-04-02T18:05:04.839Z,1.83
2023-04-02T18:07:45.768Z,2.15
2023-04-02T18:10:27.822Z,1.63
2023-04-02T18:13:15.188Z,1.52
2023-04-02T18:16:02.300Z,1.45
2023-04-02T18:18:34.914Z,1.67
2023-04-02T18:21:16.669Z,2.70
2023-04-02T18:23:59.824Z,2.63
2023-04-02T18:26:54.378Z,2.20
2023-04-02T18:29:35.685Z,1.90
2023-04-02T18:32:47.845Z,1.33
2023-04-02T18:35:25.001Z,1.60
2023-04-02T18:38:19.039Z,1.53
2023-04-02T18:41:23.646Z,2.20
2023-04-02T18:44:08.959Z,1.67
2023-04-02T18:46:41.789Z,2.00
2023-04-02T18:49:23.770Z,2.40
2023-04-02T18:51:55.849Z,1.93
2023-04-02T18:54:37.984Z,2.00
2023-04-02T18:57:22.178Z,1.75
2023-04-02T18:59:51.382Z,1.60
2023-04-02T19:02:21.146Z,2.00
2023-04-02T19:05:23.510Z,2.23
2023-04-02T19:07:55.518Z,2.10
2023-04-02T19:10:36.572Z,2.17
2023-04-02T19:13:11.545Z,1.98
2023-04-02T19:16:02.595Z,1.55
2023-04-02T19:18:52.916Z,1.97
2023-04-02T19:21:26.007Z,1.60
2023-04-02T19:27:33.808Z,1.70
2023-04-02T19:30:28.515Z,1.80
2023-04-02T19:33:17.344Z,1.77
2023-04-02T19:36:05.208Z,1.60
2023-04-02T19:38:43.621Z,2.10
2023-04-02T19:41:31.906Z,1.88
2023-04-02T19:44:04.623Z,1.40
2023-04-02T19:46:37.623Z,1.37
2023-04-02T19:49:20.118Z,1.85
2023-04-02T19:51:48.065Z,1.58
2023-04-02T19:54:15.089Z,1.33
2023-04-02T19:56:42.693Z,1.65
2023-04-02T19:59:18.028Z,1.70
2023-04-02T20:01:46.845Z,1.92
2023-04-02T20:04:21.958Z,1.83
2023-04-02T20:07:05.528Z,2.25
2023-04-02T20:09:38.058Z,1.50
2023-04-02T20:12:05.530Z,1.10
2023-04-02T20:14:32.137Z,1.80
2023-04-02T20:16:59.156Z,2.08
2023-04-02T20:19:26.113Z,1.48
2023-04-02T20:21:52.929Z,1.65
2023-04-02T20:24:19.692Z,2.13
2023-04-02T20:26:46.614Z,2.25
2023-04-02T20:29:13.282Z,2.20
2023-04-02T20:31:40.115Z,1.75
2023-04-02T20:34:08.662Z,2.40
2023-04-02T20:36:35.975Z,2.00
2023-04-02T20:39:03.631Z,2.30
2023-04-02T20:41:30.431Z,1.98
2023-04-02T20:43:57.480Z,1.65
2023-04-02T20:46:24.189Z,1.92
2023-04-02T20:48:51.075Z,1.93
2023-04-02T20:51:18.031Z,2.10
2023-04-02T20:53:44.760Z,1.73
2023-04-02T20:56:14.525Z,1.60
2023-04-02T20:58:42.445Z,1.63
2023-04-02T21:01:23.801Z,1.80
2023-04-02T21:03:55.424Z,2.13
2023-04-02T21:06:24.028Z,1.52
2023-04-02T21:08:51.620Z,1.58
2023-04-02T21:11:19.292Z,1.65
2023-04-02T21:13:46.129Z,1.87
2023-04-02T21:16:21.856Z,1.75
2023-04-02T21:18:50.930Z,1.55
2023-04-02T21:21:18.343Z,1.60
2023-04-02T21:23:45.377Z,1.40
2023-04-02T21:26:17.904Z,1.60
2023-04-02T21:28:45.890Z,1.40
2023-04-02T21:31:16.270Z,1.48
2023-04-02T21:33:48.099Z,1.73
2023-04-02T21:36:23.556Z,1.35
2023-04-02T21:39:05.224Z,1.60
2023-04-02T21:41:43.063Z,1.33
2023-04-02T21:44:13.611Z,1.90
2023-04-02T21:46:44.299Z,1.60
2023-04-02T21:49:13.121Z,2.22
2023-04-02T21:51:42.523Z,1.93
2023-04-02T21:54:09.616Z,1.95
2023-04-02T21:56:39.103Z,1.85
2023-04-02T21:59:07.025Z,1.50
2023-04-02T22:01:37.153Z,1.38
2023-04-02T22:04:05.643Z,1.23
2023-04-02T22:06:36.795Z,1.60
2023-04-02T22:09:07.649Z,1.98
2023-04-02T22:11:41.474Z,1.50
2023-04-02T22:14:08.402Z,1.40
2023-04-02T22:16:36.025Z,1.50
2023-04-02T22:19:06.995Z,2.30
2023-04-02T22:21:33.614Z,1.77
2023-04-02T22:24:04.138Z,1.77
2023-04-02T22:26:31.667Z,2.08
2023-04-02T22:28:58.931Z,1.90
2023-04-02T22:31:27.602Z,1.75
2023-04-02T22:33:55.476Z,1.70
2023-04-02T22:36:23.211Z,1.92
2023-04-02T22:38:51.856Z,1.30
2023-04-02T22:41:19.904Z,1.60
2023-04-02T22:43:46.477Z,1.60
2023-04-02T22:46:15.910Z,1.88
2023-04-02T22:48:43.008Z,1.63
2023-04-02T22:51:11.688Z,2.10
2023-04-02T22:53:39.091Z,2.47
2023-04-02T22:56:12.011Z,2.53
2023-04-02T22:58:38.934Z,2.13
2023-04-02T23:01:15.839Z,2.13
2023-04-02T23:03:42.754Z,2.00
2023-04-02T23:06:13.862Z,2.17
2023-04-02T23:08:41.029Z,1.90
2023-04-02T23:11:13.658Z,2.90
2023-04-02T23:13:40.892Z,2.25
2023-04-02T23:16:11.266Z,2.30
2023-04-02T23:18:39.238Z,2.20
2023-04-02T23:21:06.651Z,2.60
2023-04-02T23:23:33.880Z,1.98
2023-04-02T23:26:08.366Z,1.90
2023-04-02T23:28:36.650Z,2.63
2023-04-02T23:31:05.376Z,1.87
2023-04-02T23:33:32.169Z,1.80
2023-04-02T23:35:58.821Z,1.70
2023-04-02T23:38:26.545Z,1.52
2023-04-02T23:40:53.616Z,1.75
2023-04-02T23:43:20.250Z,1.53
2023-04-02T23:45:50.512Z,1.67
2023-04-02T23:48:17.460Z,1.80
2023-04-02T23:50:45.545Z,1.67
2023-04-02T23:53:13.256Z,1.30
2023-04-02T23:55:40.458Z,2.00
2023-04-02T23:58:07.118Z,1.95
